Time;durP1;ratioP1;P1;durP2;ratioP2;P2;SDS_P1;SDS_P2;PMS_P1;PMS_P2;Temp;Humidity;BMP_temperature;BMP_pressure;BME280_temperature;BME280_humidity;BME280_pressure;Samples;Min_cycle;Max_cycle;Signal;HPM_P1;HPM_P2
2022/01/05 00:00:36;;;;;;;2.10;1.20;;;22.70;38.20;;;;;;5111465;28;20919;-67
2022/01/05 00:03:04;;;;;;;1.98;1.33;;;22.60;38.20;;;;;;5112221;28;20390;-67
2022/01/05 00:05:31;;;;;;;1.60;1.20;;;22.60;38.20;;;;;;5112342;28;20403;-67
2022/01/05 00:07:57;;;;;;;1.83;1.17;;;22.60;38.40;;;;;;5113647;28;20381;-67
2022/01/05 00:10:22;;;;;;;1.80;1.23;;;22.60;38.20;;;;;;5113588;28;20392;-67
2022/01/05 00:12:48;;;;;;;1.70;1.20;;;22.60;38.20;;;;;;5111662;28;20742;-67
2022/01/05 00:15:14;;;;;;;1.38;0.98;;;22.60;38.00;;;;;;5112325;28;20431;-68
2022/01/05 00:17:40;;;;;;;1.80;1.00;;;22.60;38.00;;;;;;5111602;28;20467;-67
2022/01/05 00:20:06;;;;;;;1.80;1.20;;;22.50;37.90;;;;;;5110425;28;20403;-67
2022/01/05 00:22:32;;;;;;;2.08;1.27;;;22.60;38.10;;;;;;5113148;28;20376;-67
2022/01/05 00:24:58;;;;;;;1.95;1.15;;;22.60;38.30;;;;;;5111530;28;20396;-67
2022/01/05 00:27:23;;;;;;;1.50;1.20;;;22.60;38.40;;;;;;5111954;28;20462;-67
2022/01/05 00:29:49;;;;;;;2.25;1.20;;;22.60;38.20;;;;;;5111623;28;20381;-67
2022/01/05 00:32:15;;;;;;;1.70;1.20;;;22.60;38.20;;;;;;5113009;28;20445;-67
2022/01/05 00:34:41;;;;;;;1.60;1.20;;;22.60;38.20;;;;;;5111130;28;20412;-67
2022/01/05 00:37:07;;;;;;;1.40;1.00;;;22.60;38.20;;;;;;5112735;28;20403;-68
2022/01/05 00:39:33;;;;;;;1.67;1.20;;;22.50;38.00;;;;;;5110334;28;20388;-68
2022/01/05 00:41:58;;;;;;;1.30;0.90;;;22.50;38.10;;;;;;5111378;28;20407;-67
2022/01/05 00:44:25;;;;;;;1.40;0.97;;;22.50;38.10;;;;;;5113423;28;20392;-67
2022/01/05 00:46:50;;;;;;;1.40;0.80;;;22.50;38.00;;;;;;5111991;28;20753;-67
2022/01/05 00:49:16;;;;;;;1.30;1.00;;;22.50;38.00;;;;;;5111613;28;20399;-67
2022/01/05 00:51:42;;;;;;;1.47;0.80;;;22.50;38.00;;;;;;5112518;28;20909;-67
2022/01/05 00:54:08;;;;;;;1.45;0.93;;;22.50;38.10;;;;;;5111410;28;20420;-67
2022/01/05 00:56:34;;;;;;;1.60;1.00;;;22.50;38.00;;;;;;5112787;28;20495;-67
2022/01/05 00:59:00;;;;;;;1.50;1.00;;;22.50;38.00;;;;;;5110795;28;20500;-67
2022/01/05 01:01:26;;;;;;;1.77;0.90;;;22.50;37.90;;;;;;5111243;28;20392;-67
2022/01/05 01:03:52;;;;;;;1.30;0.90;;;22.50;38.00;;;;;;5112505;28;20441;-67
2022/01/05 01:06:18;;;;;;;1.10;0.73;;;22.50;38.00;;;;;;5112543;28;20437;-67
2022/01/05 01:08:44;;;;;;;1.00;0.70;;;22.50;38.00;;;;;;5110771;28;20384;-67
2022/01/05 01:11:10;;;;;;;1.25;0.85;;;22.50;38.10;;;;;;5112573;28;20384;-67
2022/01/05 01:13:36;;;;;;;1.40;0.80;;;22.50;38.10;;;;;;5110920;28;20437;-68
2022/01/05 01:16:02;;;;;;;1.50;0.80;;;22.50;38.00;;;;;;5112378;28;20398;-69
2022/01/05 01:18:28;;;;;;;1.85;0.90;;;22.50;38.00;;;;;;5111760;28;20463;-67
2022/01/05 01:20:54;;;;;;;1.13;0.70;;;22.50;37.90;;;;;;5110348;28;20529;-68
2022/01/05 01:23:22;;;;;;;1.00;0.75;;;22.50;37.90;;;;;;5112122;28;20436;-69
2022/01/05 01:25:50;;;;;;;0.90;0.70;;;22.50;37.90;;;;;;5112142;28;20396;-68
2022/01/05 01:28:15;;;;;;;0.95;0.65;;;22.50;37.90;;;;;;5112205;28;20715;-67
2022/01/05 01:30:41;;;;;;;1.17;0.70;;;22.60;37.90;;;;;;5111752;28;20408;-67
2022/01/05 01:33:07;;;;;;;1.10;0.70;;;22.50;38.40;;;;;;5111916;28;20472;-67
2022/01/05 01:35:33;;;;;;;1.17;0.75;;;22.50;37.80;;;;;;5109552;28;20387;-67
2022/01/05 01:37:58;;;;;;;1.25;0.80;;;22.50;37.80;;;;;;5111634;28;20396;-69
2022/01/05 01:40:24;;;;;;;1.13;0.70;;;22.50;37.80;;;;;;5112005;28;20389;-70
2022/01/05 01:42:51;;;;;;;1.70;0.90;;;22.50;37.80;;;;;;5111233;28;20441;-68
2022/01/05 01:45:16;;;;;;;0.98;0.68;;;22.50;37.80;;;;;;5112021;28;20385;-67
2022/01/05 01:47:42;;;;;;;0.93;0.60;;;22.50;37.80;;;;;;5111311;28;20415;-67
2022/01/05 01:50:09;;;;;;;1.10;0.68;;;22.50;37.80;;;;;;5111152;28;20749;-67
2022/01/05 01:52:35;;;;;;;1.10;0.70;;;22.40;37.80;;;;;;5111800;28;21136;-68
2022/01/05 01:55:02;;;;;;;1.20;0.70;;;22.40;37.90;;;;;;5109975;28;20400;-67
2022/01/05 01:57:30;;;;;;;1.10;0.80;;;22.40;37.90;;;;;;5111622;28;20388;-67
2022/01/05 02:00:00;;;;;;;1.20;0.80;;;22.40;37.90;;;;;;5111470;28;20412;-68
2022/01/05 02:02:25;;;;;;;1.20;0.70;;;22.40;37.90;;;;;;5112138;28;20471;-67
2022/01/05 02:04:51;;;;;;;0.90;0.70;;;22.40;37.90;;;;;;5110809;28;20471;-67
2022/01/05 02:07:17;;;;;;;1.20;0.70;;;22.40;37.90;;;;;;5111611;28;20416;-67
2022/01/05 02:09:43;;;;;;;1.13;0.70;;;22.40;38.50;;;;;;5111320;28;20517;-68
2022/01/05 02:12:10;;;;;;;1.00;0.60;;;22.40;37.90;;;;;;5111336;28;20385;-67
2022/01/05 02:14:36;;;;;;;0.90;0.60;;;22.40;37.90;;;;;;5111178;28;20454;-67
2022/01/05 02:17:10;;;;;;;0.77;0.60;;;22.40;37.90;;;;;;5110798;28;20408;-67
2022/01/05 02:19:36;;;;;;;1.05;0.52;;;22.40;37.90;;;;;;5109808;28;20384;-67
2022/01/05 02:22:03;;;;;;;0.90;0.60;;;22.40;37.90;;;;;;5111256;28;20388;-67
2022/01/05 02:24:29;;;;;;;1.15;0.60;;;22.40;37.90;;;;;;5109867;28;20396;-67
2022/01/05 02:26:54;;;;;;;0.73;0.50;;;22.40;37.80;;;;;;5111169;28;20380;-68
2022/01/05 02:29:21;;;;;;;0.87;0.60;;;22.40;37.80;;;;;;5110970;28;20395;-67
2022/01/05 02:31:47;;;;;;;0.93;0.52;;;22.30;37.80;;;;;;5110968;28;20454;-67
2022/01/05 02:34:17;;;;;;;0.80;0.50;;;22.40;37.80;;;;;;5108359;28;20479;-67
2022/01/05 02:36:43;;;;;;;1.00;0.50;;;22.40;37.80;;;;;;5110518;28;20410;-67
2022/01/05 02:39:09;;;;;;;0.73;0.40;;;22.40;37.80;;;;;;5110290;28;20399;-68
2022/01/05 02:41:35;;;;;;;0.80;0.40;;;22.40;37.80;;;;;;5110863;28;20385;-68
2022/01/05 02:44:01;;;;;;;0.90;0.50;;;22.40;37.70;;;;;;5110590;28;20476;-67
2022/01/05 02:46:26;;;;;;;1.10;0.60;;;22.40;37.70;;;;;;5110736;28;20865;-68
2022/01/05 02:48:53;;;;;;;0.80;0.50;;;22.40;37.60;;;;;;5110319;28;20381;-69
2022/01/05 02:51:21;;;;;;;0.85;0.50;;;22.40;37.60;;;;;;5109373;28;20807;-70
2022/01/05 02:53:47;;;;;;;0.90;0.60;;;22.40;37.60;;;;;;5109242;28;20416;-68
2022/01/05 02:56:13;;;;;;;0.90;0.60;;;22.40;37.60;;;;;;5110507;28;20467;-68
2022/01/05 02:58:39;;;;;;;0.80;0.30;;;22.40;37.60;;;;;;5109014;28;20400;-66
2022/01/05 03:01:05;;;;;;;0.90;0.40;;;22.40;37.70;;;;;;5112515;28;20494;-67
2022/01/05 03:03:31;;;;;;;0.65;0.40;;;22.40;37.70;;;;;;5116244;28;20400;-67
2022/01/05 03:05:56;;;;;;;0.90;0.57;;;22.40;37.70;;;;;;5115902;28;20384;-66
2022/01/05 03:08:22;;;;;;;0.82;0.40;;;22.40;37.70;;;;;;5115901;28;20807;-67
2022/01/05 03:10:48;;;;;;;0.80;0.45;;;22.40;37.60;;;;;;5114174;28;20384;-67
2022/01/05 03:13:14;;;;;;;0.70;0.40;;;22.40;37.60;;;;;;5115743;28;20473;-68
2022/01/05 03:15:40;;;;;;;0.70;0.40;;;22.40;37.60;;;;;;5115850;28;20391;-68
2022/01/05 03:18:07;;;;;;;0.50;0.40;;;22.30;37.50;;;;;;5114419;28;20388;-69
2022/01/05 03:20:34;;;;;;;0.70;0.40;;;22.40;37.60;;;;;;5115719;28;20441;-68
2022/01/05 03:23:02;;;;;;;0.73;0.47;;;22.40;37.60;;;;;;5115164;28;20893;-68
2022/01/05 03:25:28;;;;;;;0.80;0.40;;;22.30;37.60;;;;;;5115632;28;20445;-69
2022/01/05 03:27:54;;;;;;;0.38;0.22;;;22.40;37.60;;;;;;5115523;28;20475;-67
2022/01/05 03:30:28;;;;;;;0.90;0.40;;;22.40;37.60;;;;;;5115478;28;20383;-68
2022/01/05 03:35:29;;;;;;;0.90;0.40;;;22.30;37.60;;;;;;5115595;28;20901;-69
2022/01/05 03:37:55;;;;;;;0.50;0.30;;;22.30;37.50;;;;;;5115317;28;20388;-68
2022/01/05 03:40:21;;;;;;;0.77;0.40;;;22.30;37.60;;;;;;5115361;28;20445;-68
2022/01/05 03:42:47;;;;;;;0.60;0.40;;;22.30;37.60;;;;;;5114883;28;20433;-68
2022/01/05 03:45:13;;;;;;;0.55;0.30;;;22.30;37.60;;;;;;5113866;28;20396;-68
2022/01/05 03:47:39;;;;;;;1.00;0.40;;;22.30;37.50;;;;;;5114008;28;20467;-68
2022/01/05 03:50:05;;;;;;;0.57;0.30;;;22.30;37.50;;;;;;5113772;28;20431;-68
2022/01/05 03:52:31;;;;;;;0.70;0.30;;;22.30;37.50;;;;;;5113866;28;20385;-69
2022/01/05 03:54:57;;;;;;;0.50;0.30;;;22.30;37.50;;;;;;5113119;28;20412;-68
2022/01/05 03:57:23;;;;;;;0.70;0.40;;;22.40;37.50;;;;;;5115068;28;20377;-68
2022/01/05 03:59:48;;;;;;;0.63;0.30;;;22.40;37.40;;;;;;5114817;28;20423;-68
2022/01/05 04:02:14;;;;;;;0.90;0.30;;;22.40;37.40;;;;;;5114886;28;20383;-67
2022/01/05 04:04:40;;;;;;;0.50;0.30;;;22.30;37.30;;;;;;5114902;28;20384;-68
2022/01/05 04:07:05;;;;;;;0.52;0.38;;;22.40;37.50;;;;;;5114380;28;20434;-67
2022/01/05 04:09:31;;;;;;;1.20;0.50;;;22.40;37.40;;;;;;5114753;28;20430;-67
2022/01/05 04:11:56;;;;;;;0.90;0.50;;;22.40;37.30;;;;;;5114176;28;20384;-68
2022/01/05 04:14:22;;;;;;;1.75;1.27;;;22.50;37.70;;;;;;5114509;28;20408;-68
2022/01/05 04:16:48;;;;;;;3.60;0.87;;;22.50;38.60;;;;;;5114399;28;20897;-68
2022/01/05 04:19:13;;;;;;;4.80;0.70;;;22.50;38.40;;;;;;5113275;28;20408;-67
2022/01/05 04:21:39;;;;;;;2.30;0.77;;;22.60;38.50;;;;;;5114487;28;20471;-68
2022/01/05 04:24:05;;;;;;;3.23;0.80;;;22.50;38.50;;;;;;5114415;28;20471;-68
2022/01/05 04:26:31;;;;;;;4.07;0.82;;;22.50;38.80;;;;;;5114399;28;20388;-68
2022/01/05 04:28:56;;;;;;;1.65;0.60;;;22.60;39.10;;;;;;5113889;28;20392;-68
2022/01/05 04:31:22;;;;;;;5.30;0.60;;;22.50;39.10;;;;;;5114344;28;20786;-68
2022/01/05 04:33:48;;;;;;;2.03;0.70;;;22.50;39.30;;;;;;5114146;28;20426;-69
2022/01/05 04:36:13;;;;;;;2.90;0.60;;;22.60;39.70;;;;;;5114255;28;20392;-69
2022/01/05 04:38:39;;;;;;;2.57;0.50;;;22.60;39.70;;;;;;5112934;28;20372;-69
2022/01/05 04:41:04;;;;;;;2.00;0.50;;;22.50;39.00;;;;;;5113432;28;20542;-69
2022/01/05 04:43:30;;;;;;;3.63;0.50;;;22.50;39.50;;;;;;5114030;28;20404;-68
2022/01/05 04:45:56;;;;;;;1.60;0.30;;;22.50;39.30;;;;;;5112734;28;20381;-69
2022/01/05 04:48:22;;;;;;;2.92;0.60;;;22.50;38.90;;;;;;5112337;28;20395;-68
2022/01/05 04:50:48;;;;;;;1.67;0.38;;;22.60;39.20;;;;;;5113575;28;20399;-68
2022/01/05 04:53:14;;;;;;;4.45;0.57;;;22.60;39.60;;;;;;5113421;28;20860;-67
2022/01/05 04:55:40;;;;;;;3.03;0.40;;;22.70;39.70;;;;;;5113242;28;20960;-68
2022/01/05 04:58:06;;;;;;;5.93;0.68;;;22.70;39.60;;;;;;5114559;28;20445;-68
2022/01/05 05:00:32;;;;;;;3.50;0.63;;;22.70;39.30;;;;;;5114122;28;20380;-68
2022/01/05 05:02:57;;;;;;;2.20;0.40;;;22.70;39.20;;;;;;5113568;28;20416;-68
2022/01/05 05:05:23;;;;;;;1.00;0.30;;;22.60;39.10;;;;;;5112523;28;20423;-67
2022/01/05 05:07:49;;;;;;;1.90;0.43;;;22.50;38.70;;;;;;5113557;28;20384;-69
2022/01/05 05:10:14;;;;;;;2.05;0.32;;;22.60;38.60;;;;;;5113443;28;20437;-68
2022/01/05 05:12:40;;;;;;;1.80;0.30;;;22.60;38.80;;;;;;5113487;28;20388;-68
2022/01/05 05:15:06;;;;;;;2.83;0.40;;;22.60;38.90;;;;;;5112837;28;20408;-68
2022/01/05 05:17:32;;;;;;;0.63;0.40;;;22.60;38.70;;;;;;5113439;28;20380;-68
2022/01/05 05:19:57;;;;;;;0.83;0.30;;;22.60;38.70;;;;;;5113410;28;20479;-68
2022/01/05 05:22:23;;;;;;;1.30;0.30;;;22.60;38.30;;;;;;5112839;28;20417;-69
2022/01/05 05:24:49;;;;;;;1.90;0.30;;;22.60;38.20;;;;;;5112116;28;20396;-68
2022/01/05 05:27:15;;;;;;;3.35;0.40;;;22.50;38.10;;;;;;5112729;28;20388;-68
2022/01/05 05:29:40;;;;;;;2.40;0.40;;;22.50;38.00;;;;;;5113179;28;20450;-68
2022/01/05 05:32:07;;;;;;;1.63;0.40;;;22.60;38.00;;;;;;5113131;28;20395;-68
2022/01/05 05:34:33;;;;;;;2.42;0.50;;;22.50;38.00;;;;;;5113039;28;20412;-68
2022/01/05 05:36:58;;;;;;;2.33;0.47;;;22.50;38.00;;;;;;5112522;28;20429;-68
2022/01/05 05:39:24;;;;;;;3.25;0.40;;;22.50;37.90;;;;;;5112855;28;20437;-68
2022/01/05 05:41:50;;;;;;;2.57;0.50;;;22.50;37.70;;;;;;5113555;28;20775;-68
2022/01/05 05:44:15;;;;;;;5.45;0.52;;;22.40;37.70;;;;;;5112997;28;20414;-69
2022/01/05 05:46:41;;;;;;;3.80;0.60;;;22.40;38.60;;;;;;5112860;28;20385;-68
2022/01/05 05:49:07;;;;;;;3.55;0.43;;;22.50;38.60;;;;;;5112153;28;20379;-69
2022/01/05 05:51:32;;;;;;;3.67;0.60;;;22.50;38.90;;;;;;5112844;28;20372;-68
2022/01/05 05:53:58;;;;;;;4.90;0.80;;;22.50;39.20;;;;;;5112361;28;20472;-69
2022/01/05 05:56:24;;;;;;;7.40;1.67;;;22.60;39.30;;;;;;5112535;28;20434;-68
2022/01/05 05:58:49;;;;;;;6.32;1.13;;;22.60;40.10;;;;;;5111855;28;20456;-68
2022/01/05 06:01:15;;;;;;;6.20;0.90;;;22.60;39.60;;;;;;5110651;28;20392;-67
2022/01/05 06:03:41;;;;;;;4.13;0.85;;;22.60;39.70;;;;;;5111852;28;20399;-68
2022/01/05 06:06:07;;;;;;;2.57;0.70;;;22.60;39.70;;;;;;5110618;28;20414;-68
2022/01/05 06:08:32;;;;;;;3.33;0.70;;;22.60;39.50;;;;;;5110887;28;20396;-68
2022/01/05 06:10:58;;;;;;;4.33;0.90;;;22.60;39.40;;;;;;5111434;28;20391;-67
2022/01/05 06:13:23;;;;;;;4.40;0.70;;;22.60;39.40;;;;;;5106598;28;20396;-68
2022/01/05 06:15:49;;;;;;;2.55;0.68;;;22.60;39.00;;;;;;5111539;28;20393;-69
2022/01/05 06:18:15;;;;;;;3.87;0.70;;;22.60;38.90;;;;;;5109688;28;20402;-68
2022/01/05 06:20:41;;;;;;;2.55;0.60;;;22.60;39.20;;;;;;5111048;28;20396;-69
2022/01/05 06:23:07;;;;;;;1.60;0.70;;;22.70;39.90;;;;;;5110372;28;20776;-68
2022/01/05 06:25:32;;;;;;;3.90;0.70;;;22.70;39.20;;;;;;5110672;28;20388;-67
2022/01/05 06:27:58;;;;;;;3.77;0.60;;;22.70;39.10;;;;;;5107459;28;20886;-69
2022/01/05 06:30:23;;;;;;;4.57;0.57;;;22.70;39.00;;;;;;5109827;28;20873;-68
2022/01/05 06:32:49;;;;;;;3.20;0.70;;;22.70;39.00;;;;;;5110455;28;20865;-68
2022/01/05 06:35:16;;;;;;;2.90;0.68;;;22.70;39.20;;;;;;5109015;28;20840;-69
2022/01/05 06:37:42;;;;;;;3.05;0.60;;;22.70;39.10;;;;;;5109919;28;20877;-68
2022/01/05 06:40:08;;;;;;;2.00;0.47;;;22.70;39.00;;;;;;5108864;28;20403;-68
2022/01/05 06:42:34;;;;;;;2.20;0.60;;;22.70;38.90;;;;;;5107228;28;20377;-68
2022/01/05 06:45:00;;;;;;;1.90;0.60;;;22.70;38.80;;;;;;5110577;28;20446;-70
2022/01/05 06:47:25;;;;;;;1.70;0.50;;;22.70;38.90;;;;;;5111640;28;20873;-70
2022/01/05 06:49:51;;;;;;;2.42;0.70;;;22.70;38.60;;;;;;5109594;28;20400;-69
2022/01/05 06:52:16;;;;;;;2.37;0.57;;;22.70;38.30;;;;;;5109910;28;20463;-70
2022/01/05 06:54:43;;;;;;;1.50;0.50;;;22.60;38.10;;;;;;5108166;28;20416;-69
2022/01/05 06:57:09;;;;;;;1.65;0.50;;;22.60;38.10;;;;;;5108386;28;20373;-68
2022/01/05 06:59:35;;;;;;;1.83;0.70;;;22.60;38.00;;;;;;5110061;28;20400;-69
2022/01/05 07:02:02;;;;;;;1.73;0.57;;;22.60;37.90;;;;;;5107336;28;20420;-68
2022/01/05 07:04:28;;;;;;;2.00;0.60;;;22.60;37.90;;;;;;5109531;28;20882;-69
2022/01/05 07:06:53;;;;;;;2.50;0.63;;;22.60;37.80;;;;;;5109725;28;20399;-67
2022/01/05 07:09:19;;;;;;;0.73;0.55;;;22.50;37.70;;;;;;5110429;28;20471;-69
2022/01/05 07:11:45;;;;;;;2.17;0.57;;;22.60;37.70;;;;;;5111285;28;20418;-68
2022/01/05 07:14:11;;;;;;;1.00;0.50;;;22.50;37.60;;;;;;5111099;28;20889;-69
2022/01/05 07:16:37;;;;;;;1.60;0.43;;;22.50;37.60;;;;;;5110922;28;20409;-69
2022/01/05 07:19:02;;;;;;;1.13;0.40;;;22.50;37.60;;;;;;5109323;28;20905;-69
2022/01/05 07:21:33;;;;;;;1.63;0.50;;;22.50;37.50;;;;;;5111035;28;20382;-69
2022/01/05 07:24:02;;;;;;;1.80;0.50;;;22.50;37.60;;;;;;5109782;28;20487;-69
2022/01/05 07:26:28;;;;;;;1.27;0.40;;;22.50;37.50;;;;;;5110490;28;20745;-69
2022/01/05 07:28:55;;;;;;;2.42;0.50;;;22.50;37.40;;;;;;5110786;28;20396;-69
2022/01/05 07:31:21;;;;;;;1.00;0.40;;;22.50;37.40;;;;;;5110865;28;20781;-69
2022/01/05 07:33:46;;;;;;;2.50;0.60;;;22.50;37.40;;;;;;5111019;28;20447;-69
2022/01/05 07:36:12;;;;;;;1.35;0.63;;;22.40;37.30;;;;;;5109587;28;20487;-69
2022/01/05 07:38:38;;;;;;;1.33;0.47;;;22.40;37.30;;;;;;5110876;28;20396;-69
2022/01/05 07:41:04;;;;;;;0.60;0.40;;;22.40;37.40;;;;;;5110356;28;20432;-68
2022/01/05 07:43:30;;;;;;;0.70;0.40;;;22.40;37.30;;;;;;5111104;28;20388;-71
2022/01/05 07:45:55;;;;;;;0.85;0.47;;;22.40;37.30;;;;;;5109680;28;20417;-69
2022/01/05 07:48:21;;;;;;;0.90;0.50;;;22.40;37.30;;;;;;5114343;28;20477;-69
2022/01/05 07:50:47;;;;;;;1.60;0.50;;;22.40;37.40;;;;;;5114699;28;20861;-69
2022/01/05 07:53:13;;;;;;;0.50;0.40;;;22.40;37.30;;;;;;5112407;28;20452;-69
2022/01/05 07:55:38;;;;;;;1.00;0.50;;;22.40;37.30;;;;;;5114553;28;20491;-69
2022/01/05 07:58:04;;;;;;;0.70;0.40;;;22.40;37.30;;;;;;5114636;28;20493;-69
2022/01/05 08:00:30;;;;;;;1.20;0.50;;;22.40;37.30;;;;;;5113141;28;20400;-69
2022/01/05 08:02:55;;;;;;;1.90;0.50;;;22.40;37.30;;;;;;5114023;28;20800;-70
2022/01/05 08:05:21;;;;;;;0.85;0.50;;;22.40;37.40;;;;;;5112730;28;20479;-68
2022/01/05 08:07:47;;;;;;;1.53;0.40;;;22.30;37.30;;;;;;5114068;28;20411;-68
2022/01/05 08:10:12;;;;;;;1.40;0.60;;;22.30;37.30;;;;;;5113420;28;20483;-68
2022/01/05 08:12:40;;;;;;;0.93;0.50;;;22.30;37.30;;;;;;5114240;28;20388;-69
2022/01/05 08:15:06;;;;;;;1.33;0.60;;;22.30;37.30;;;;;;5112234;28;20500;-68
2022/01/05 08:17:32;;;;;;;0.77;0.55;;;22.30;37.30;;;;;;5114132;28;20385;-69
2022/01/05 08:19:57;;;;;;;1.57;0.53;;;22.30;37.20;;;;;;5114094;28;20399;-68
2022/01/05 08:22:23;;;;;;;0.90;0.57;;;22.30;37.30;;;;;;5113232;28;20390;-68
2022/01/05 08:24:49;;;;;;;0.82;0.50;;;22.30;37.30;;;;;;5114832;28;20450;-68
2022/01/05 08:27:14;;;;;;;1.10;0.60;;;22.30;37.20;;;;;;5113506;28;20862;-69
2022/01/05 08:29:40;;;;;;;1.02;0.60;;;22.30;37.20;;;;;;5114611;28;20384;-69
2022/01/05 08:32:06;;;;;;;1.27;0.60;;;22.30;37.20;;;;;;5114293;28;20386;-68
2022/01/05 08:34:32;;;;;;;1.00;0.60;;;22.30;37.20;;;;;;5113578;28;20404;-69
2022/01/05 08:36:59;;;;;;;0.90;0.52;;;22.30;37.20;;;;;;5112887;28;20388;-68
2022/01/05 08:39:25;;;;;;;1.23;0.60;;;22.30;37.20;;;;;;5111774;28;20412;-68
2022/01/05 08:41:51;;;;;;;1.15;0.70;;;22.30;37.20;;;;;;5112451;28;20380;-69
2022/01/05 08:44:17;;;;;;;1.65;0.60;;;22.30;37.20;;;;;;5113477;28;20723;-69
2022/01/05 08:46:43;;;;;;;1.17;0.63;;;22.30;37.30;;;;;;5113554;28;20866;-71
2022/01/05 08:49:10;;;;;;;1.65;0.60;;;22.30;37.40;;;;;;5112991;28;20416;-70
2022/01/05 08:51:37;;;;;;;1.55;0.70;;;22.20;37.70;;;;;;5113470;28;20381;-70
2022/01/05 08:54:03;;;;;;;1.30;0.70;;;22.30;37.60;;;;;;5112815;28;20443;-71
2022/01/05 08:56:29;;;;;;;2.78;0.75;;;22.30;37.50;;;;;;5112840;28;20419;-71
2022/01/05 08:58:55;;;;;;;1.73;0.60;;;22.30;37.60;;;;;;5112669;28;20446;-69
2022/01/05 09:01:22;;;;;;;1.30;0.60;;;22.20;37.60;;;;;;5112446;28;20879;-70
2022/01/05 09:03:47;;;;;;;2.00;0.70;;;22.20;37.70;;;;;;5111511;28;20451;-68
2022/01/05 09:06:13;;;;;;;1.50;0.60;;;22.20;37.80;;;;;;5112689;28;20424;-68
2022/01/05 09:08:39;;;;;;;1.10;0.70;;;22.30;37.90;;;;;;5113529;28;20975;-68
2022/01/05 09:11:07;;;;;;;1.48;0.65;;;22.30;37.90;;;;;;5112435;28;20408;-68
2022/01/05 09:13:33;;;;;;;1.63;0.73;;;22.30;37.90;;;;;;5111406;28;20437;-68
2022/01/05 09:15:58;;;;;;;1.60;0.60;;;22.20;37.90;;;;;;5111825;28;20896;-68
2022/01/05 09:18:24;;;;;;;1.77;0.70;;;22.30;38.00;;;;;;5113819;28;20400;-68
2022/01/05 09:20:50;;;;;;;2.03;0.70;;;22.30;38.00;;;;;;5112638;28;20392;-68
2022/01/05 09:23:15;;;;;;;1.50;0.90;;;22.20;37.90;;;;;;5112356;28;20880;-68
2022/01/05 09:25:42;;;;;;;1.20;0.70;;;22.20;37.90;;;;;;5112932;28;20433;-69
2022/01/05 09:28:09;;;;;;;1.10;0.65;;;22.20;37.90;;;;;;5112687;28;20385;-68
2022/01/05 09:30:35;;;;;;;1.45;0.68;;;22.20;37.90;;;;;;5112616;28;20392;-68
2022/01/05 09:33:01;;;;;;;1.02;0.70;;;22.20;37.90;;;;;;5112282;28;20384;-68
2022/01/05 09:35:27;;;;;;;1.73;0.73;;;22.20;37.90;;;;;;5111629;28;20400;-68
2022/01/05 09:38:06;;;;;;;1.17;0.70;;;22.20;37.90;;;;;;5112191;28;20520;-69
2022/01/05 09:43:16;;;;;;;1.08;0.63;;;22.20;37.90;;;;;;5112205;28;20510;-68
2022/01/05 09:46:07;;;;;;;1.40;0.60;;;22.10;37.90;;;;;;5112399;27;20457;-68
2022/01/05 09:48:43;;;;;;;2.50;0.60;;;22.10;37.90;;;;;;5112386;28;20376;-68
2022/01/05 09:51:10;;;;;;;1.05;0.65;;;22.10;37.90;;;;;;5111860;28;20380;-69
2022/01/05 09:53:37;;;;;;;1.27;0.60;;;22.00;38.10;;;;;;5111988;28;20396;-68
2022/01/05 09:56:04;;;;;;;1.38;0.70;;;22.10;38.10;;;;;;5110966;28;20400;-69
2022/01/05 09:58:31;;;;;;;1.10;0.50;;;22.10;38.00;;;;;;5111548;28;20392;-69
2022/01/05 10:00:56;;;;;;;0.83;0.50;;;22.10;38.10;;;;;;5110353;28;20388;-68
2022/01/05 10:03:23;;;;;;;1.25;0.57;;;22.10;38.10;;;;;;5111350;28;20395;-68
2022/01/05 10:05:49;;;;;;;1.10;0.70;;;22.10;38.10;;;;;;5111910;28;20516;-69
2022/01/05 10:08:29;;;;;;;1.13;0.57;;;22.10;38.00;;;;;;5108806;27;20358;-67
2022/01/05 10:10:55;;;;;;;1.67;0.57;;;22.10;38.00;;;;;;5108984;28;20399;-67
2022/01/05 10:13:21;;;;;;;1.33;0.70;;;22.10;38.00;;;;;;5108044;28;20472;-68
2022/01/05 10:15:47;;;;;;;1.07;0.53;;;22.10;37.90;;;;;;5108733;28;20497;-67
2022/01/05 10:18:16;;;;;;;1.00;0.50;;;22.10;37.90;;;;;;5108823;28;20441;-67
2022/01/05 10:21:00;;;;;;;1.57;0.60;;;22.10;38.00;;;;;;5107201;28;20403;-67
2022/01/05 10:23:36;;;;;;;1.40;0.50;;;22.10;37.90;;;;;;5107155;28;20381;-67
2022/01/05 10:26:24;;;;;;;0.85;0.50;;;22.10;37.80;;;;;;5108161;28;20393;-68
2022/01/05 10:28:55;;;;;;;1.70;0.63;;;22.10;37.90;;;;;;5088426;28;20383;-68
2022/01/05 10:31:34;;;;;;;0.60;0.40;;;22.10;37.80;;;;;;5086348;28;20383;-67
2022/01/05 10:34:15;;;;;;;1.00;0.50;;;22.10;37.90;;;;;;5086749;28;20391;-67
2022/01/05 10:36:52;;;;;;;1.00;0.50;;;22.00;37.80;;;;;;5087893;28;20453;-67
2022/01/05 10:39:20;;;;;;;0.75;0.50;;;22.10;37.90;;;;;;5087403;28;20882;-67
2022/01/05 10:41:46;;;;;;;0.68;0.50;;;22.10;37.90;;;;;;5093067;28;20544;-67
2022/01/05 10:44:23;;;;;;;1.05;0.60;;;22.00;37.90;;;;;;5108199;28;20442;-67
2022/01/05 10:46:55;;;;;;;0.77;0.45;;;22.10;37.90;;;;;;5107823;28;20405;-70
2022/01/05 10:49:23;;;;;;;0.82;0.40;;;22.10;37.90;;;;;;5105692;28;21054;-70
2022/01/05 10:51:49;;;;;;;0.85;0.40;;;22.00;37.90;;;;;;5108009;28;20439;-70
2022/01/05 10:54:18;;;;;;;1.10;0.50;;;22.00;38.00;;;;;;5107972;28;20772;-70
2022/01/05 10:56:44;;;;;;;0.90;0.50;;;22.00;38.00;;;;;;5108096;28;20427;-70
2022/01/05 10:59:11;;;;;;;0.55;0.38;;;22.00;38.00;;;;;;5107215;28;20394;-70
2022/01/05 11:01:38;;;;;;;0.80;0.50;;;22.00;38.00;;;;;;5106449;28;20448;-70
2022/01/05 11:04:30;;;;;;;0.73;0.40;;;22.00;38.00;;;;;;5107906;28;20419;-71
2022/01/05 11:06:56;;;;;;;1.40;0.57;;;21.90;38.00;;;;;;5103754;27;20485;-70
2022/01/05 11:09:23;;;;;;;0.80;0.50;;;21.90;38.00;;;;;;5106119;28;20454;-71
2022/01/05 11:11:50;;;;;;;0.80;0.43;;;21.90;37.90;;;;;;5107878;28;20439;-70
2022/01/05 11:14:32;;;;;;;0.60;0.30;;;21.90;37.90;;;;;;5105749;28;20476;-70
2022/01/05 11:17:04;;;;;;;0.93;0.40;;;21.90;37.80;;;;;;5107444;28;20412;-67
2022/01/05 11:19:33;;;;;;;2.08;0.40;;;21.90;37.90;;;;;;5088714;28;20398;-67
2022/01/05 11:22:03;;;;;;;2.25;0.60;;;21.90;38.80;;;;;;5091457;28;20425;-67
2022/01/05 11:24:32;;;;;;;1.55;0.52;;;22.00;38.90;;;;;;5073674;28;20384;-68
2022/01/05 11:26:59;;;;;;;1.70;0.90;;;22.10;38.90;;;;;;5078265;28;20449;-68
2022/01/05 11:29:25;;;;;;;3.58;1.00;;;22.20;38.60;;;;;;5091447;28;20381;-70
2022/01/05 11:31:51;;;;;;;2.60;0.90;;;22.20;38.70;;;;;;5092633;28;20397;-67
2022/01/05 11:34:17;;;;;;;1.83;0.73;;;22.20;38.70;;;;;;5092256;28;20382;-68
2022/01/05 11:36:43;;;;;;;1.20;0.80;;;22.30;38.70;;;;;;5092563;28;20424;-67
2022/01/05 11:39:09;;;;;;;2.13;0.77;;;22.30;38.60;;;;;;5091983;28;20465;-68
2022/01/05 11:41:43;;;;;;;1.70;0.70;;;22.30;38.60;;;;;;5092267;28;20543;-68
2022/01/05 11:44:09;;;;;;;0.90;0.52;;;22.30;38.50;;;;;;5092429;28;20390;-68
2022/01/05 11:46:36;;;;;;;1.60;0.70;;;22.30;38.50;;;;;;5090915;28;20428;-68
2022/01/05 11:49:07;;;;;;;1.17;0.70;;;22.30;38.50;;;;;;5092376;28;20386;-68
2022/01/05 11:51:42;;;;;;;1.13;0.60;;;22.30;38.50;;;;;;5091917;28;20481;-69
2022/01/05 11:54:30;;;;;;;1.45;0.60;;;22.40;38.40;;;;;;5090552;28;20386;-68
2022/01/05 11:57:06;;;;;;;1.55;0.60;;;22.30;37.80;;;;;;5090438;28;20390;-69
2022/01/05 11:59:42;;;;;;;1.30;0.60;;;22.40;38.40;;;;;;5091776;28;20390;-68
2022/01/05 12:02:12;;;;;;;1.33;0.70;;;22.30;38.30;;;;;;5090259;28;20386;-68
2022/01/05 12:04:59;;;;;;;2.15;0.80;;;22.30;38.50;;;;;;5091729;28;20852;-68
2022/01/05 12:07:46;;;;;;;1.97;1.00;;;22.40;38.30;;;;;;5089474;28;20418;-68
2022/01/05 12:10:18;;;;;;;2.60;0.80;;;22.40;38.30;;;;;;5091558;28;21022;-68
2022/01/05 12:13:02;;;;;;;1.20;0.68;;;22.40;38.00;;;;;;5092507;28;20392;-68
2022/01/05 12:15:57;;;;;;;1.30;0.70;;;22.30;37.90;;;;;;5089711;28;20465;-69
2022/01/05 12:18:29;;;;;;;1.58;0.50;;;22.30;37.70;;;;;;5082101;28;20398;-68
2022/01/05 12:20:57;;;;;;;2.07;0.93;;;22.30;37.60;;;;;;5092924;28;20422;-68
2022/01/05 12:23:28;;;;;;;1.10;0.70;;;22.20;37.50;;;;;;5091283;28;20386;-69
2022/01/05 12:26:03;;;;;;;1.40;0.80;;;22.20;37.50;;;;;;5091508;28;20398;-69
2022/01/05 12:28:37;;;;;;;1.25;0.60;;;22.20;37.50;;;;;;5092457;28;20452;-69
2022/01/05 12:31:05;;;;;;;2.83;0.77;;;22.20;37.30;;;;;;5091208;28;20393;-69
2022/01/05 12:33:49;;;;;;;1.45;0.60;;;22.20;37.30;;;;;;5083896;28;20786;-69
2022/01/05 12:36:33;;;;;;;2.38;0.60;;;22.20;37.30;;;;;;5091342;28;20425;-69
2022/01/05 12:38:59;;;;;;;1.17;0.68;;;22.10;37.50;;;;;;5091816;28;20382;-69
2022/01/05 12:41:40;;;;;;;4.28;0.70;;;22.10;37.50;;;;;;5091227;28;20390;-68
2022/01/05 12:44:15;;;;;;;2.63;0.70;;;22.10;37.60;;;;;;5092148;28;20378;-69
2022/01/05 12:46:49;;;;;;;1.70;0.80;;;22.10;37.60;;;;;;5091259;28;20397;-69
2022/01/05 12:49:26;;;;;;;1.20;0.70;;;22.10;37.60;;;;;;5090829;28;20900;-69
2022/01/05 12:52:07;;;;;;;1.38;0.68;;;22.10;37.60;;;;;;5089476;28;20733;-69
2022/01/05 12:54:42;;;;;;;1.20;0.70;;;22.10;37.60;;;;;;5090618;28;20416;-69